createdAt,value
2022-12-23T00:04:03.773Z,13.6
2022-12-23T00:09:41.792Z,13.6
2022-12-23T00:15:18.717Z,13.6
2022-12-23T00:21:08.751Z,13.6
2022-12-23T00:26:48.418Z,13.6
2022-12-23T00:32:24.366Z,13.6
2022-12-23T00:37:59.554Z,13.6
2022-12-23T00:43:34.447Z,13.5
2022-12-23T00:49:32.942Z,13.5
2022-12-23T00:55:05.698Z,13.4
2022-12-23T01:00:40.843Z,13.4
2022-12-23T01:06:37.479Z,13.4
2022-12-23T01:12:12.348Z,13.3
2022-12-23T01:18:37.038Z,13.3
2022-12-23T01:24:38.922Z,13.2
2022-12-23T01:30:23.201Z,13.1
2022-12-23T01:35:58.812Z,13
2022-12-23T01:41:36.618Z,13
2022-12-23T01:48:15.761Z,12.9
2022-12-23T01:53:48.783Z,12.9
2022-12-23T01:59:28.490Z,12.9
2022-12-23T02:05:12.698Z,12.8
2022-12-23T02:10:53.735Z,12.8
2022-12-23T02:16:33.849Z,12.8
2022-12-23T02:22:34.485Z,12.7
2022-12-23T02:28:12.590Z,12.7
2022-12-23T02:33:47.709Z,12.8
2022-12-23T02:39:42.259Z,12.9
2022-12-23T02:45:47.895Z,12.9
2022-12-23T02:51:25.115Z,12.8
2022-12-23T02:57:22.643Z,12.7
2022-12-23T03:03:01.437Z,12.6
2022-12-23T03:08:38.842Z,12.6
2022-12-23T03:14:18.047Z,12.6
2022-12-23T03:19:56.530Z,12.6
2022-12-23T03:26:01.888Z,12.5
2022-12-23T03:31:45.302Z,12.5
2022-12-23T03:37:21.029Z,12.5
2022-12-23T03:42:55.947Z,12.5
2022-12-23T03:49:22.875Z,12.4
2022-12-23T03:54:55.833Z,12.3
2022-12-23T04:00:45.275Z,12.3
2022-12-23T04:06:40.190Z,12.4
2022-12-23T04:12:58.120Z,12.4
2022-12-23T04:18:42.150Z,12.5
2022-12-23T04:24:18.234Z,12.5
2022-12-23T04:30:01.161Z,12.5
2022-12-23T04:36:21.638Z,12.5
2022-12-23T04:41:58.231Z,12.4
2022-12-23T04:48:04.114Z,12.3
2022-12-23T04:53:37.796Z,12.2
2022-12-23T04:59:13.883Z,12.1
2022-12-23T05:04:53.748Z,12.1
2022-12-23T05:10:30.584Z,12.1
2022-12-23T05:16:06.171Z,12.1
2022-12-23T05:21:51.586Z,12.1
2022-12-23T05:27:44.705Z,12.2
2022-12-23T05:33:20.077Z,12.4
2022-12-23T05:38:56.138Z,12.5
2022-12-23T05:44:51.542Z,12.4
2022-12-23T05:50:34.872Z,12.3
2022-12-23T05:56:10.471Z,12.4
2022-12-23T06:01:58.076Z,12.5
2022-12-23T06:07:35.789Z,12.6
2022-12-23T06:13:11.385Z,12.7
2022-12-23T06:18:50.790Z,12.6
2022-12-23T06:24:25.863Z,12.7
2022-12-23T06:30:01.060Z,12.9
2022-12-23T06:35:43.471Z,13
2022-12-23T06:41:18.875Z,12.9
2022-12-23T06:47:15.635Z,12.8
2022-12-23T06:52:48.458Z,12.7
2022-12-23T06:58:42.215Z,12.6
2022-12-23T07:04:23.885Z,12.5
2022-12-23T07:10:00.203Z,12.5
2022-12-23T07:15:43.520Z,12.4
2022-12-23T07:21:26.640Z,12.3
2022-12-23T07:27:05.418Z,12.2
2022-12-23T07:32:41.012Z,12.2
2022-12-23T07:38:16.126Z,12.2
2022-12-23T07:44:37.149Z,12.3
2022-12-23T07:50:12.397Z,12.3
2022-12-23T07:55:51.603Z,12.4
2022-12-23T08:01:32.265Z,12.6
2022-12-23T08:07:49.041Z,12.8
2022-12-23T08:13:28.560Z,13.1
2022-12-23T08:19:04.830Z,13.1
2022-12-23T08:24:42.845Z,13.1
2022-12-23T08:30:19.246Z,13
2022-12-23T08:35:55.935Z,12.5
2022-12-23T08:41:31.357Z,12
2022-12-23T08:47:12.082Z,11.6
2022-12-23T08:52:48.452Z,11.4
2022-12-23T08:58:41.103Z,11.4
2022-12-23T09:04:16.775Z,11.5
2022-12-23T09:09:56.511Z,12.2
2022-12-23T09:15:55.636Z,13.2
2022-12-23T09:21:47.350Z,13.3
2022-12-23T09:27:33.863Z,13.5
2022-12-23T09:33:21.240Z,13.7
2022-12-23T09:39:10.202Z,13.7
2022-12-23T09:44:45.835Z,13.9
2022-12-23T09:50:24.055Z,14.2
2022-12-23T09:55:59.346Z,14.5
2022-12-23T10:01:44.535Z,15
2022-12-23T10:07:22.131Z,15.2
2022-12-23T10:12:57.797Z,15.4
2022-12-23T10:18:41.070Z,15.9
2022-12-23T10:24:46.565Z,16.4
2022-12-23T10:31:23.608Z,16.7
2022-12-23T10:37:24.525Z,16.7
2022-12-23T10:43:02.604Z,16.3
2022-12-23T10:49:11.265Z,16.2
2022-12-23T10:54:55.983Z,16.8
2022-12-23T11:00:50.532Z,17
2022-12-23T11:06:33.226Z,17
2022-12-23T11:12:13.097Z,17.1
2022-12-23T11:17:48.402Z,17.5
2022-12-23T11:23:36.105Z,17.4
2022-12-23T11:29:12.513Z,17.2
2022-12-23T11:34:56.077Z,17.4
2022-12-23T11:40:59.020Z,17.3
2022-12-23T11:46:42.700Z,17.7
2022-12-23T11:52:31.225Z,17.5
2022-12-23T11:58:15.829Z,17.2
2022-12-23T12:04:12.507Z,16.6
2022-12-23T12:10:47.467Z,16.3
2022-12-23T12:16:24.244Z,16.2
2022-12-23T12:22:00.892Z,16.1
2022-12-23T12:27:37.079Z,15.9
2022-12-23T12:33:12.374Z,15.9
2022-12-23T12:38:47.972Z,16.1
2022-12-23T12:44:35.486Z,16.7
2022-12-23T12:50:12.299Z,17.2
2022-12-23T12:55:47.609Z,17.4
2022-12-23T13:01:50.451Z,17
2022-12-23T13:07:26.568Z,17.2
2022-12-23T13:13:22.341Z,17.2
2022-12-23T13:19:00.385Z,17.5
2022-12-23T13:24:59.936Z,17.4
2022-12-23T13:30:53.460Z,17.4
2022-12-23T13:36:34.105Z,17.7
2022-12-23T13:42:11.877Z,17.8
2022-12-23T13:48:26.219Z,17.5
2022-12-23T13:54:04.337Z,17.5
2022-12-23T13:59:40.893Z,17.3
2022-12-23T14:05:24.461Z,17.1
2022-12-23T14:11:06.091Z,17.2
2022-12-23T14:16:44.063Z,17.2
2022-12-23T14:22:32.159Z,17
2022-12-23T14:28:08.154Z,16.9
2022-12-23T14:34:11.293Z,17.1
2022-12-23T14:39:55.347Z,17.1
2022-12-23T14:45:31.655Z,17.1
2022-12-23T14:51:06.637Z,17.1
2022-12-23T14:56:44.260Z,17
2022-12-23T15:02:24.293Z,17
2022-12-23T15:08:00.854Z,16.9
2022-12-23T15:13:37.067Z,16.9
2022-12-23T15:19:20.116Z,17
2022-12-23T15:25:03.479Z,16.9
2022-12-23T15:30:38.610Z,16.9
2022-12-23T15:36:14.801Z,16.7
2022-12-23T15:41:50.533Z,16.2
2022-12-23T15:47:46.972Z,16
2022-12-23T15:53:19.921Z,15.6
2022-12-23T15:59:16.940Z,15.4
2022-12-23T16:05:51.439Z,15.1
2022-12-23T16:11:36.758Z,15.2
2022-12-23T16:17:12.154Z,15.2
2022-12-23T16:23:09.043Z,15
2022-12-23T16:28:45.329Z,15
2022-12-23T16:34:21.704Z,15.2
2022-12-23T16:40:12.366Z,15.1
2022-12-23T16:45:48.234Z,14.9
2022-12-23T16:51:24.000Z,14.7
2022-12-23T16:57:05.559Z,14.5
2022-12-23T17:02:40.775Z,14.8
2022-12-23T17:08:18.832Z,15.1
2022-12-23T17:14:15.780Z,14.7
2022-12-23T17:20:11.417Z,14.7
2022-12-23T17:25:54.174Z,14.8
2022-12-23T17:31:29.356Z,14.8
2022-12-23T17:37:12.308Z,14.7
2022-12-23T17:43:05.083Z,14.6
2022-12-23T17:48:58.011Z,14.5
2022-12-23T17:54:33.522Z,14.5
2022-12-23T18:00:09.733Z,14.5
2022-12-23T18:05:46.726Z,14.5
2022-12-23T18:11:22.462Z,14.4
2022-12-23T18:16:58.489Z,14.3
2022-12-23T18:22:35.059Z,14.4
2022-12-23T18:28:20.262Z,14.3
2022-12-23T18:34:43.374Z,14.3
2022-12-23T18:40:26.754Z,14.4
2022-12-23T18:47:32.481Z,14.3
2022-12-23T18:53:05.838Z,14.2
2022-12-23T18:58:42.299Z,14.1
2022-12-23T19:04:19.196Z,14
2022-12-23T19:09:58.007Z,14
2022-12-23T19:15:33.508Z,13.9
2022-12-23T19:21:10.234Z,13.8
2022-12-23T19:26:46.868Z,13.8
2022-12-23T19:33:15.712Z,13.8
2022-12-23T19:38:58.315Z,13.8
2022-12-23T19:44:36.649Z,13.8
2022-12-23T19:50:35.086Z,13.7
2022-12-23T19:56:09.910Z,13.6
2022-12-23T20:01:47.942Z,13.6
2022-12-23T20:07:39.945Z,13.6
2022-12-23T20:13:32.936Z,13.5
2022-12-23T20:19:24.024Z,13.5
2022-12-23T20:25:09.035Z,13.4
2022-12-23T20:30:44.365Z,13.4
2022-12-23T20:36:20.825Z,13.4
2022-12-23T20:41:59.761Z,13.4
2022-12-23T20:47:57.101Z,13.3
2022-12-23T20:53:30.522Z,13.3
2022-12-23T20:59:36.431Z,13.3
2022-12-23T21:05:45.131Z,13.2
2022-12-23T21:11:21.488Z,13.1
2022-12-23T21:16:56.756Z,13
2022-12-23T21:22:40.850Z,12.9
2022-12-23T21:28:19.702Z,13
2022-12-23T21:33:56.539Z,13
2022-12-23T21:39:36.779Z,13
2022-12-23T21:45:12.519Z,13
2022-12-23T21:50:47.288Z,13
2022-12-23T21:56:24.951Z,13
2022-12-23T22:02:03.541Z,12.9
2022-12-23T22:07:39.390Z,12.9
2022-12-23T22:13:18.270Z,12.8
2022-12-23T22:19:04.895Z,12.8
2022-12-23T22:24:40.676Z,12.8
2022-12-23T22:30:17.545Z,12.9
2022-12-23T22:35:56.523Z,12.9
2022-12-23T22:41:48.547Z,12.8
2022-12-23T22:48:07.815Z,12.9
2022-12-23T22:53:41.072Z,13
2022-12-23T22:59:17.351Z,13.1
2022-12-23T23:04:52.286Z,13.1
2022-12-23T23:10:28.708Z,13.2
2022-12-23T23:16:03.862Z,13.2
2022-12-23T23:21:39.625Z,13.3
2022-12-23T23:27:24.291Z,13.2
2022-12-23T23:32:59.656Z,13
2022-12-23T23:39:00.687Z,12.7
2022-12-23T23:44:47.642Z,12.7
2022-12-23T23:50:22.939Z,12.6
2022-12-23T23:56:03.821Z,12.4
